Time,TemperatureF,DewpointF,PressureIn,WindDirection,WindDirectionDegrees,WindSpeedMPH,WindSpeedGustMPH,Humidity,HourlyPrecipIn,Conditions,Clouds,dailyrainin,SoftwareType,DateUTC
2013-07-10 00:13:00,69.5,52.0,29.90,NW,311,1.0,3.0,55,0.00,,,0.00,weatherlink.com 1.10,2013-07-10 07:13:00,
2013-07-10 00:28:00,69.0,52.0,29.91,NW,311,0.0,1.0,55,0.00,,,0.00,weatherlink.com 1.10,2013-07-10 07:28:00,
2013-07-10 00:43:00,67.1,52.0,29.90,NW,311,1.0,2.0,59,0.00,,,0.00,weatherlink.com 1.10,2013-07-10 07:43:00,
2013-07-10 00:58:00,67.4,52.0,29.90,NW,311,0.0,2.0,59,0.00,,,0.00,weatherlink.com 1.10,2013-07-10 07:58:00,
2013-07-10 01:13:00,67.1,52.0,29.90,NW,311,0.0,2.0,59,0.00,,,0.00,weatherlink.com 1.10,2013-07-10 08:13:00,
2013-07-10 01:28:00,66.3,52.0,29.89,NW,311,1.0,2.0,61,0.00,,,0.00,weatherlink.com 1.10,2013-07-10 08:28:00,
2013-07-10 01:43:00,65.2,53.0,29.89,NW,311,0.0,2.0,64,0.00,,,0.00,weatherlink.com 1.10,2013-07-10 08:43:00,
2013-07-10 01:58:00,64.9,52.0,29.89,NW,311,0.0,2.0,64,0.00,,,0.00,weatherlink.com 1.10,2013-07-10 08:58:00,
2013-07-10 02:13:00,64.4,52.0,29.88,NW,311,0.0,2.0,65,0.00,,,0.00,weatherlink.com 1.10,2013-07-10 09:13:00,
2013-07-10 02:28:00,63.9,51.0,29.88,NW,311,0.0,3.0,64,0.00,,,0.00,weatherlink.com 1.10,2013-07-10 09:28:00,
2013-07-10 02:43:00,64.1,52.0,29.88,NW,311,0.0,3.0,64,0.00,,,0.00,weatherlink.com 1.10,2013-07-10 09:43:00,
2013-07-10 02:58:00,64.6,52.0,29.88,NW,311,1.0,4.0,63,0.00,,,0.00,weatherlink.com 1.10,2013-07-10 09:58:00,
2013-07-10 03:13:00,64.9,51.0,29.88,South,190,4.0,5.0,61,0.00,,,0.00,weatherlink.com 1.10,2013-07-10 10:13:00,
2013-07-10 03:28:00,65.3,51.0,29.88,South,173,3.0,8.0,60,0.00,,,0.00,weatherlink.com 1.10,2013-07-10 10:28:00,
2013-07-10 03:43:00,65.6,51.0,29.88,South,172,5.0,9.0,60,0.00,,,0.00,weatherlink.com 1.10,2013-07-10 10:43:00,
2013-07-10 03:58:00,64.7,51.0,29.87,South,171,6.0,9.0,61,0.00,,,0.00,weatherlink.com 1.10,2013-07-10 10:58:00,
2013-07-10 04:13:00,64.4,51.0,29.87,South,171,5.0,7.0,62,0.00,,,0.00,weatherlink.com 1.10,2013-07-10 11:13:00,
2013-07-10 04:28:00,64.1,51.0,29.87,SSE,164,4.0,9.0,62,0.00,,,0.00,weatherlink.com 1.10,2013-07-10 11:28:00,
2013-07-10 04:43:00,63.4,51.0,29.87,SSE,167,2.0,7.0,64,0.00,,,0.00,weatherlink.com 1.10,2013-07-10 11:43:00,
2013-07-10 04:58:00,63.1,51.0,29.87,South,170,1.0,6.0,64,0.00,,,0.00,weatherlink.com 1.10,2013-07-10 11:58:00,
2013-07-10 05:13:00,63.0,51.0,29.87,South,179,4.0,8.0,65,0.00,,,0.00,weatherlink.com 1.10,2013-07-10 12:13:00,
2013-07-10 05:28:00,63.1,51.0,29.87,South,181,2.0,8.0,64,0.00,,,0.00,weatherlink.com 1.10,2013-07-10 12:28:00,
2013-07-10 05:43:00,63.2,51.0,29.86,South,171,6.0,9.0,64,0.00,,,0.00,weatherlink.com 1.10,2013-07-10 12:43:00,
2013-07-10 05:58:00,63.2,51.0,29.86,SSE,165,7.0,9.0,65,0.00,,,0.00,weatherlink.com 1.10,2013-07-10 12:58:00,
2013-07-10 06:13:00,63.4,51.0,29.86,South,171,4.0,6.0,65,0.00,,,0.00,weatherlink.com 1.10,2013-07-10 13:13:00,
2013-07-10 06:28:00,63.8,51.0,29.86,South,177,3.0,8.0,64,0.00,,,0.00,weatherlink.com 1.10,2013-07-10 13:28:00,
2013-07-10 06:43:00,64.9,52.0,29.86,South,178,1.0,5.0,63,0.00,,,0.00,weatherlink.com 1.10,2013-07-10 13:43:00,
2013-07-10 06:58:00,66.3,52.0,29.86,South,178,1.0,5.0,60,0.00,,,0.00,weatherlink.com 1.10,2013-07-10 13:58:00,
2013-07-10 07:13:00,66.1,52.0,29.86,South,177,2.0,7.0,60,0.00,,,0.00,weatherlink.com 1.10,2013-07-10 14:13:00,
2013-07-10 07:28:00,66.5,52.0,29.86,South,176,1.0,7.0,60,0.00,,,0.00,weatherlink.com 1.10,2013-07-10 14:28:00,
2013-07-10 07:43:00,67.6,52.0,29.86,South,177,3.0,6.0,58,0.00,,,0.00,weatherlink.com 1.10,2013-07-10 14:43:00,
2013-07-10 07:58:00,67.4,52.0,29.86,South,170,4.0,7.0,58,0.00,,,0.00,weatherlink.com 1.10,2013-07-10 14:58:00,
2013-07-10 08:13:00,68.4,52.0,29.86,South,171,1.0,6.0,57,0.00,,,0.00,weatherlink.com 1.10,2013-07-10 15:13:00,
2013-07-10 08:28:00,70.1,53.0,29.86,South,171,4.0,5.0,54,0.00,,,0.00,weatherlink.com 1.10,2013-07-10 15:28:00,
2013-07-10 08:43:00,71.4,52.0,29.86,South,171,3.0,5.0,51,0.00,,,0.00,weatherlink.com 1.10,2013-07-10 15:43:00,
2013-07-10 08:58:00,72.1,52.0,29.86,South,171,3.0,5.0,50,0.00,,,0.00,weatherlink.com 1.10,2013-07-10 15:58:00,
2013-07-10 09:14:00,72.8,52.0,29.86,South,170,1.0,6.0,49,0.00,,,0.00,weatherlink.com 1.10,2013-07-10 16:14:00,
2013-07-10 09:29:00,74.0,54.0,29.85,South,169,0.0,3.0,49,0.00,,,0.00,weatherlink.com 1.10,2013-07-10 16:29:00,
2013-07-10 09:44:00,75.2,51.0,29.84,South,175,2.0,6.0,43,0.00,,,0.00,weatherlink.com 1.10,2013-07-10 16:44:00,
2013-07-10 09:59:00,76.4,52.0,29.84,South,175,1.0,3.0,43,0.00,,,0.00,weatherlink.com 1.10,2013-07-10 16:59:00,
2013-07-10 10:14:00,78.6,50.0,29.83,South,175,1.0,4.0,37,0.00,,,0.00,weatherlink.com 1.10,2013-07-10 17:14:00,
2013-07-10 10:29:00,79.7,52.0,29.83,NW,324,5.0,7.0,38,0.00,,,0.00,weatherlink.com 1.10,2013-07-10 17:29:00,
2013-07-10 10:44:00,79.8,51.0,29.82,NE,46,3.0,5.0,37,0.00,,,0.00,weatherlink.com 1.10,2013-07-10 17:44:00,
2013-07-10 10:59:00,81.9,51.0,29.82,North,360,3.0,8.0,34,0.00,,,0.00,weatherlink.com 1.10,2013-07-10 17:59:00,
2013-07-10 11:14:00,82.2,52.0,29.82,WNW,289,7.0,10.0,35,0.00,,,0.00,weatherlink.com 1.10,2013-07-10 18:14:00,
2013-07-10 11:29:00,82.7,52.0,29.81,NNW,328,5.0,9.0,34,0.00,,,0.00,weatherlink.com 1.10,2013-07-10 18:29:00,
2013-07-10 11:44:00,83.6,52.0,29.81,NW,322,8.0,11.0,33,0.00,,,0.00,weatherlink.com 1.10,2013-07-10 18:44:00,
2013-07-10 11:59:00,84.6,51.0,29.81,NW,313,2.0,9.0,31,0.00,,,0.00,weatherlink.com 1.10,2013-07-10 18:59:00,
2013-07-10 12:14:00,84.8,50.0,29.80,WNW,284,3.0,9.0,30,0.00,,,0.00,weatherlink.com 1.10,2013-07-10 19:14:00,
2013-07-10 12:29:00,84.6,49.0,29.80,NW,316,5.0,12.0,29,0.00,,,0.00,weatherlink.com 1.10,2013-07-10 19:29:00,
2013-07-10 12:44:00,84.7,49.0,29.79,NNE,19,3.0,10.0,29,0.00,,,0.00,weatherlink.com 1.10,2013-07-10 19:44:00,
2013-07-10 12:59:00,85.9,48.0,29.79,NW,304,5.0,9.0,27,0.00,,,0.00,weatherlink.com 1.10,2013-07-10 19:59:00,
2013-07-10 13:14:00,85.3,50.0,29.78,West,272,0.0,9.0,29,0.00,,,0.00,weatherlink.com 1.10,2013-07-10 20:14:00,
2013-07-10 13:29:00,87.9,48.0,29.77,NNW,348,2.0,10.0,25,0.00,,,0.00,weatherlink.com 1.10,2013-07-10 20:29:00,
2013-07-10 13:44:00,86.5,48.0,29.77,North,350,3.0,8.0,26,0.00,,,0.00,weatherlink.com 1.10,2013-07-10 20:44:00,
2013-07-10 13:59:00,86.9,45.0,29.76,NW,321,2.0,11.0,23,0.00,,,0.00,weatherlink.com 1.10,2013-07-10 20:59:00,
2013-07-10 14:14:00,85.4,45.0,29.76,NW,313,2.0,11.0,24,0.00,,,0.00,weatherlink.com 1.10,2013-07-10 21:14:00,
2013-07-10 14:29:00,86.6,45.0,29.76,North,360,5.0,8.0,23,0.00,,,0.00,weatherlink.com 1.10,2013-07-10 21:29:00,
2013-07-10 14:44:00,87.2,46.0,29.76,North,360,2.0,9.0,24,0.00,,,0.00,weatherlink.com 1.10,2013-07-10 21:44:00,
2013-07-10 14:59:00,85.9,44.0,29.75,North,5,7.0,10.0,23,0.00,,,0.00,weatherlink.com 1.10,2013-07-10 21:59:00,
2013-07-10 15:14:00,86.7,42.0,29.74,NNE,27,4.0,13.0,21,0.00,,,0.00,weatherlink.com 1.10,2013-07-10 22:14:00,
2013-07-10 15:29:00,87.8,42.0,29.74,WNW,299,7.0,13.0,20,0.00,,,0.00,weatherlink.com 1.10,2013-07-10 22:29:00,
2013-07-10 15:44:00,88.2,42.0,29.73,NNW,343,7.0,13.0,20,0.00,,,0.00,weatherlink.com 1.10,2013-07-10 22:44:00,
2013-07-10 15:59:00,88.5,44.0,29.73,NW,322,8.0,16.0,21,0.00,,,0.00,weatherlink.com 1.10,2013-07-10 22:59:00,
2013-07-10 16:14:00,88.3,44.0,29.72,NNW,338,7.0,13.0,21,0.00,,,0.00,weatherlink.com 1.10,2013-07-10 23:14:00,
2013-07-10 16:29:00,87.9,45.0,29.71,North,5,7.0,15.0,22,0.00,,,0.00,weatherlink.com 1.10,2013-07-10 23:29:00,
2013-07-10 16:45:00,88.3,45.0,29.71,NNW,336,10.0,15.0,22,0.00,,,0.00,weatherlink.com 1.10,2013-07-10 23:45:00,
2013-07-10 17:00:00,86.0,45.0,29.70,NW,310,8.0,16.0,24,0.00,,,0.00,weatherlink.com 1.10,2013-07-11 00:00:00,
2013-07-10 17:15:00,84.6,46.0,29.71,NW,305,7.0,13.0,26,0.00,,,0.00,weatherlink.com 1.10,2013-07-11 00:15:00,
2013-07-10 17:30:00,85.6,47.0,29.71,NNW,338,4.0,17.0,26,0.00,,,0.00,weatherlink.com 1.10,2013-07-11 00:30:00,
2013-07-10 17:45:00,85.2,47.0,29.70,NNW,346,7.0,14.0,26,0.00,,,0.00,weatherlink.com 1.10,2013-07-11 00:45:00,
2013-07-10 18:00:00,84.7,46.0,29.71,NW,315,11.0,16.0,26,0.00,,,0.00,weatherlink.com 1.10,2013-07-11 01:00:00,
2013-07-10 18:15:00,84.1,45.0,29.70,NNW,337,9.0,14.0,25,0.00,,,0.00,weatherlink.com 1.10,2013-07-11 01:15:00,
2013-07-10 18:30:00,82.5,42.0,29.70,North,355,7.0,18.0,24,0.00,,,0.00,weatherlink.com 1.10,2013-07-11 01:30:00,
2013-07-10 18:45:00,81.6,43.0,29.71,NNW,338,11.0,16.0,25,0.00,,,0.00,weatherlink.com 1.10,2013-07-11 01:45:00,
2013-07-10 19:00:00,82.4,42.0,29.71,NW,304,7.0,13.0,24,0.00,,,0.00,weatherlink.com 1.10,2013-07-11 02:00:00,
2013-07-10 19:15:00,81.7,42.0,29.71,NNW,342,7.0,13.0,24,0.00,,,0.00,weatherlink.com 1.10,2013-07-11 02:15:00,
2013-07-10 19:30:00,80.9,42.0,29.72,NNW,329,6.0,12.0,25,0.00,,,0.00,weatherlink.com 1.10,2013-07-11 02:30:00,
2013-07-10 19:45:00,80.3,41.0,29.72,NW,315,4.0,9.0,25,0.00,,,0.00,weatherlink.com 1.10,2013-07-11 02:45:00,
2013-07-10 20:00:00,79.3,42.0,29.72,NW,319,3.0,7.0,27,0.00,,,0.00,weatherlink.com 1.10,2013-07-11 03:00:00,
2013-07-10 20:15:00,78.0,43.0,29.73,North,350,0.0,6.0,29,0.00,,,0.00,weatherlink.com 1.10,2013-07-11 03:15:00,
2013-07-10 20:30:00,77.3,44.0,29.73,North,355,0.0,6.0,30,0.00,,,0.00,weatherlink.com 1.10,2013-07-11 03:30:00,
2013-07-10 20:45:00,76.0,43.0,29.73,North,355,1.0,2.0,31,0.00,,,0.00,weatherlink.com 1.10,2013-07-11 03:45:00,
2013-07-10 21:00:00,74.2,44.0,29.74,North,355,0.0,3.0,34,0.00,,,0.00,weatherlink.com 1.10,2013-07-11 04:00:00,
2013-07-10 21:15:00,73.6,43.0,29.74,North,355,0.0,2.0,33,0.00,,,0.00,weatherlink.com 1.10,2013-07-11 04:15:00,
2013-07-10 21:30:00,71.6,43.0,29.75,North,355,0.0,0.0,36,0.00,,,0.00,weatherlink.com 1.10,2013-07-11 04:30:00,
2013-07-10 21:45:00,71.2,43.0,29.76,North,355,0.0,2.0,36,0.00,,,0.00,weatherlink.com 1.10,2013-07-11 04:45:00,
2013-07-10 22:00:00,71.9,42.0,29.76,North,355,2.0,4.0,34,0.00,,,0.00,weatherlink.com 1.10,2013-07-11 05:00:00,
2013-07-10 22:15:00,70.5,41.0,29.76,North,355,0.0,4.0,35,0.00,,,0.00,weatherlink.com 1.10,2013-07-11 05:15:00,
2013-07-10 22:30:00,68.0,43.0,29.77,North,355,0.0,1.0,40,0.00,,,0.00,weatherlink.com 1.10,2013-07-11 05:30:00,
2013-07-10 22:45:00,68.6,43.0,29.78,North,355,2.0,4.0,40,0.00,,,0.00,weatherlink.com 1.10,2013-07-11 05:45:00,
2013-07-10 23:00:00,67.6,44.0,29.78,North,355,2.0,2.0,43,0.00,,,0.00,weatherlink.com 1.10,2013-07-11 06:00:00,
2013-07-10 23:15:00,67.0,44.0,29.79,North,355,2.0,3.0,43,0.00,,,0.00,weatherlink.com 1.10,2013-07-11 06:15:00,
2013-07-10 23:30:00,65.9,44.0,29.79,North,355,1.0,2.0,46,0.00,,,0.00,weatherlink.com 1.10,2013-07-11 06:30:00,
2013-07-10 23:45:00,65.4,46.0,29.79,North,355,0.0,0.0,49,0.00,,,0.00,weatherlink.com 1.10,2013-07-11 06:45:00,